Time;durP1;ratioP1;P1;durP2;ratioP2;P2;SDS_P1;SDS_P2;PMS_P1;PMS_P2;Temp;Humidity;BMP_temperature;BMP_pressure;BME280_temperature;BME280_humidity;BME280_pressure;Samples;Min_cycle;Max_cycle;Signal;HPM_P1;HPM_P2
2023/03/24 00:01:40;;;;;;;;;3.00;3.00;;;;;15.73;63.79;99486.28;5073286;27;46288;-76
2023/03/24 00:04:06;;;;;;;;;5.00;3.00;;;;;15.78;63.70;99489.25;5074046;27;45785;-73
2023/03/24 00:06:33;;;;;;;;;3.75;3.50;;;;;15.77;63.68;99492.88;5073515;28;45777;-73
2023/03/24 00:08:59;;;;;;;;;4.00;2.75;;;;;15.78;63.89;99502.44;5089793;27;47327;-77
2023/03/24 00:14:46;;;;;;;;;3.75;3.75;;;;;15.75;64.13;99502.81;5074127;28;45722;-75
2023/03/24 00:17:16;;;;;;;;;2.50;2.00;;;;;15.73;64.17;99494.22;5074303;27;45649;-75
2023/03/24 00:19:43;;;;;;;;;3.75;3.00;;;;;15.75;64.02;99509.91;5073862;27;47528;-73
2023/03/24 00:22:13;;;;;;;;;3.00;3.00;;;;;15.74;64.17;99490.59;5074124;28;45539;-75
2023/03/24 00:24:45;;;;;;;;;4.00;4.00;;;;;15.79;64.42;99495.34;5073854;27;45553;-74
2023/03/24 00:27:12;;;;;;;;;3.50;3.00;;;;;15.80;64.15;99508.41;5074065;27;45659;-72
2023/03/24 00:29:39;;;;;;;;;3.75;3.00;;;;;15.80;64.05;99476.72;5074085;27;46188;-75
2023/03/24 00:32:04;;;;;;;;;2.00;2.00;;;;;15.80;64.13;99491.72;5074380;27;45941;-73
2023/03/24 00:34:30;;;;;;;;;3.00;2.25;;;;;15.81;64.04;99501.31;5074795;27;45728;-73
2023/03/24 00:36:55;;;;;;;;;3.00;2.50;;;;;15.80;64.29;99500.47;5074255;28;45605;-71
2023/03/24 00:39:20;;;;;;;;;3.75;3.00;;;;;15.77;64.19;99508.72;5073753;27;46488;-73
2023/03/24 00:45:08;;;;;;;;;1.00;0.00;;;;;15.68;64.41;99517.66;5073557;28;45581;-75
2023/03/24 00:47:40;;;;;;;;;2.75;2.75;;;;;15.58;64.46;99511.75;5073875;27;45852;-76
2023/03/24 00:50:10;;;;;;;;;2.00;1.50;;;;;15.68;64.69;99540.59;5075047;27;47481;-73
2023/03/24 00:52:36;;;;;;;;;3.00;3.00;;;;;15.68;64.59;99548.53;5077470;28;46056;-73
2023/03/24 00:55:05;;;;;;;;;2.50;2.25;;;;;15.70;64.65;99554.47;5077134;27;45635;-75
2023/03/24 00:57:33;;;;;;;;;2.00;2.00;;;;;15.71;64.60;99556.13;5077048;27;46212;-75
2023/03/24 01:00:11;;;;;;;;;2.75;2.00;;;;;15.71;64.63;99549.00;5076756;27;47276;-76
2023/03/24 01:02:36;;;;;;;;;4.00;2.75;;;;;15.61;64.74;99526.41;5076719;27;46365;-75
2023/03/24 01:05:01;;;;;;;;;3.00;2.00;;;;;15.73;64.72;99528.53;5076939;28;45447;-74
2023/03/24 01:07:29;;;;;;;;;3.00;2.00;;;;;15.75;64.77;99534.50;5076680;27;45572;-73
2023/03/24 01:09:58;;;;;;;;;1.25;1.25;;;;;15.67;64.67;99534.50;5076393;27;47376;-75
2023/03/24 01:15:45;;;;;;;;;2.00;2.00;;;;;15.66;65.13;99538.13;5076191;28;45844;-73
2023/03/24 01:18:14;;;;;;;;;2.25;2.25;;;;;15.62;64.85;99549.19;5092274;27;45905;-75
2023/03/24 01:20:47;;;;;;;;;2.75;2.75;;;;;15.66;64.65;99542.56;5076347;27;45712;-74
2023/03/24 01:23:21;;;;;;;;;3.00;2.00;;;;;15.65;65.07;99546.22;5092014;27;46166;-74
2023/03/24 01:25:47;;;;;;;;;2.00;2.00;;;;;15.57;64.70;99536.50;5076490;27;45714;-75
2023/03/24 01:28:16;;;;;;;;;3.00;2.00;;;;;15.64;64.62;99532.19;5076369;27;45589;-73
2023/03/24 01:30:42;;;;;;;;;2.25;1.50;;;;;15.63;64.74;99549.03;5076144;27;47195;-73
2023/03/24 01:33:08;;;;;;;;;1.00;1.00;;;;;15.61;64.38;99550.19;5076230;27;46227;-74
2023/03/24 01:35:35;;;;;;;;;2.50;1.75;;;;;15.57;64.64;99547.06;5076170;27;45716;-73
2023/03/24 01:38:04;;;;;;;;;2.00;2.00;;;;;15.55;64.63;99553.50;5076552;27;45687;-75
2023/03/24 01:40:32;;;;;;;;;2.00;2.00;;;;;15.53;64.71;99554.50;5076445;28;46781;-72
2023/03/24 01:46:21;;;;;;;;;2.50;1.00;;;;;15.52;64.47;99544.09;5075784;28;45672;-72
2023/03/24 01:48:54;;;;;;;;;1.25;1.00;;;;;15.55;64.53;99554.31;5076289;27;45891;-72
2023/03/24 01:51:26;;;;;;;;;1.75;1.75;;;;;15.49;64.75;99560.25;5076184;28;46395;-72
2023/03/24 01:53:58;;;;;;;;;2.00;2.00;;;;;15.55;64.82;99564.06;5076098;27;46445;-71
2023/03/24 01:56:25;;;;;;;;;2.00;2.00;;;;;15.54;64.45;99560.59;5091305;27;45702;-74
2023/03/24 01:58:57;;;;;;;;;2.00;1.25;;;;;15.56;64.88;99571.81;5075611;27;45822;-72
2023/03/24 02:01:28;;;;;;;;;2.00;2.00;;;;;15.61;64.49;99566.03;5074413;27;45574;-72
2023/03/24 02:03:54;;;;;;;;;1.00;1.00;;;;;15.58;64.44;99548.72;5075744;27;47302;-71
2023/03/24 02:06:22;;;;;;;;;2.00;1.00;;;;;15.54;64.33;99547.41;5075463;27;45810;-73
2023/03/24 02:08:53;;;;;;;;;1.00;1.00;;;;;15.49;64.59;99539.13;5075768;27;45619;-73
2023/03/24 02:11:20;;;;;;;;;2.00;2.00;;;;;15.52;64.70;99539.63;5075877;28;46500;-72
2023/03/24 02:13:45;;;;;;;;;2.00;2.00;;;;;15.51;64.55;99537.13;5075302;27;46422;-75
2023/03/24 02:16:28;;;;;;;;;2.75;2.00;;;;;15.56;64.65;99526.09;5091179;27;45698;-73
2023/03/24 02:19:18;;;;;;;;;2.00;2.00;;;;;15.52;64.92;99542.28;5075519;27;45534;-72
2023/03/24 02:21:55;;;;;;;;;2.75;2.75;;;;;15.51;64.53;99547.69;5075163;28;47524;-73
2023/03/24 02:24:46;;;;;;;;;2.75;2.00;;;;;15.49;64.78;99553.13;5075539;28;45967;-74
2023/03/24 02:27:48;;;;;;;;;2.00;2.00;;;;;15.49;65.16;99558.41;5090754;27;45548;-74
2023/03/24 02:30:43;;;;;;;;;1.25;1.25;;;;;15.48;64.92;99575.25;5091237;27;45651;-75
2023/03/24 02:33:45;;;;;;;;;2.00;1.75;;;;;15.45;65.20;99575.56;5075355;27;46923;-74
2023/03/24 02:36:20;;;;;;;;;2.00;2.00;;;;;15.41;65.21;99562.88;5075304;27;46072;-73
2023/03/24 02:39:08;;;;;;;;;3.00;3.00;;;;;15.40;65.44;99583.16;5075565;28;45521;-71
2023/03/24 02:45:39;;;;;;;;;2.75;2.00;;;;;15.41;65.44;99586.63;5075021;28;46127;-75
2023/03/24 02:48:13;;;;;;;;;3.00;3.00;;;;;15.39;65.38;99581.50;5032651;28;46143;-77
2023/03/24 02:50:53;;;;;;;;;2.00;2.00;;;;;15.38;65.54;99584.34;5032872;28;45684;-78
2023/03/24 02:53:37;;;;;;;;;1.00;0.75;;;;;15.34;65.65;99586.47;5032776;28;45623;-75
2023/03/24 02:56:34;;;;;;;;;2.00;2.00;;;;;15.30;65.42;99577.22;5032589;28;45673;-72
2023/03/24 03:02:42;;;;;;;;;3.00;2.00;;;;;15.22;65.27;99569.31;5028511;28;45694;-77
2023/03/24 03:05:22;;;;;;;;;1.50;1.50;;;;;15.20;65.28;99571.28;5015677;28;45561;-77
2023/03/24 03:07:49;;;;;;;;;0.00;0.00;;;;;15.18;65.30;99589.09;5032547;28;45633;-76
2023/03/24 03:10:27;;;;;;;;;1.25;1.25;;;;;15.09;65.16;99590.91;5032220;28;47087;-77
2023/03/24 03:16:24;;;;;;;;;1.00;1.00;;;;;15.11;64.99;99607.38;5032111;28;45750;-78
2023/03/24 03:19:16;;;;;;;;;1.00;1.00;;;;;15.08;64.08;99607.72;5054703;28;46431;-77
2023/03/24 03:21:44;;;;;;;;;0.75;0.25;;;;;15.05;64.57;99612.50;5073173;28;48470;-77
2023/03/24 03:24:19;;;;;;;;;1.00;1.00;;;;;15.00;64.13;99617.44;5074709;27;45670;-74
2023/03/24 03:26:47;;;;;;;;;1.00;1.00;;;;;14.93;64.44;99609.34;5074746;27;45603;-72
2023/03/24 03:32:40;;;;;;;;;1.00;1.00;;;;;14.88;64.08;99622.19;5074425;28;45997;-76
2023/03/24 03:35:14;;;;;;;;;0.75;0.25;;;;;14.75;64.00;99605.97;5074441;28;45602;-75
2023/03/24 03:37:59;;;;;;;;;2.00;1.00;;;;;14.78;63.72;99624.13;5074466;27;45909;-73
2023/03/24 03:40:36;;;;;;;;;1.00;0.00;;;;;14.76;63.94;99634.00;5089940;27;47313;-76
2023/03/24 03:43:04;;;;;;;;;0.00;0.00;;;;;14.68;63.95;99626.88;5074386;28;45916;-75
2023/03/24 03:45:31;;;;;;;;;0.00;0.00;;;;;14.67;63.60;99629.69;5074235;27;45851;-73
2023/03/24 03:47:56;;;;;;;;;0.00;0.00;;;;;14.60;63.76;99623.41;5090361;27;45540;-73
2023/03/24 03:50:22;;;;;;;;;0.00;0.00;;;;;14.56;63.47;99624.72;5074623;28;46523;-74
2023/03/24 03:52:49;;;;;;;;;0.25;0.00;;;;;14.54;63.30;99629.31;5074136;28;46427;-74
2023/03/24 03:55:15;;;;;;;;;3.00;0.00;;;;;14.53;63.16;99625.84;5074562;27;45486;-76
2023/03/24 03:57:41;;;;;;;;;1.00;0.00;;;;;14.47;63.12;99620.38;5074607;27;45654;-75
2023/03/24 04:00:16;;;;;;;;;0.75;0.00;;;;;14.46;63.26;99634.56;5073941;27;47615;-74
2023/03/24 04:03:24;;;;;;;;;0.00;0.00;;;;;14.48;63.05;99651.84;5088799;27;45985;-74
2023/03/24 04:06:05;;;;;;;;;1.00;0.00;;;;;14.44;63.48;99653.16;5073888;27;45690;-73
2023/03/24 04:09:00;;;;;;;;;1.00;0.00;;;;;14.40;63.40;99648.34;5073987;27;45827;-72
2023/03/24 04:11:32;;;;;;;;;2.50;0.00;;;;;14.34;63.23;99633.13;5031560;28;46466;-73
2023/03/24 04:14:06;;;;;;;;;1.25;0.00;;;;;14.27;63.33;99628.50;5031098;28;46070;-73
2023/03/24 04:16:32;;;;;;;;;2.00;0.00;;;;;14.33;63.34;99639.38;5031133;28;45732;-75
2023/03/24 04:19:32;;;;;;;;;1.00;0.00;;;;;14.30;62.91;99641.34;5031572;28;45590;-73
2023/03/24 04:22:01;;;;;;;;;1.00;0.25;;;;;14.25;62.80;99654.16;5031305;28;45654;-73
2023/03/24 04:24:48;;;;;;;;;1.00;0.00;;;;;14.21;62.85;99647.53;5013481;28;48192;-72
2023/03/24 04:27:28;;;;;;;;;0.00;0.00;;;;;14.22;62.91;99656.28;5030784;28;45793;-73
2023/03/24 04:29:57;;;;;;;;;0.00;0.00;;;;;14.20;62.68;99666.97;5031505;28;45810;-75
2023/03/24 04:33:07;;;;;;;;;0.00;0.00;;;;;14.20;62.63;99672.22;5030815;28;45606;-73
2023/03/24 04:35:42;;;;;;;;;0.00;0.00;;;;;14.16;62.05;99668.25;4991110;28;46161;-73
2023/03/24 04:38:16;;;;;;;;;0.00;0.00;;;;;14.13;62.15;99673.03;4991322;28;45842;-72
2023/03/24 04:40:45;;;;;;;;;0.00;0.00;;;;;14.13;62.23;99678.28;4991541;28;45613;-72
2023/03/24 04:46:32;;;;;;;;;1.00;0.00;;;;;14.06;62.08;99680.72;4991021;28;45687;-71
2023/03/24 04:48:57;;;;;;;;;1.00;0.00;;;;;14.06;62.43;99690.41;5019601;28;45768;-74
2023/03/24 04:51:23;;;;;;;;;1.50;0.50;;;;;14.07;62.22;99692.91;5030697;28;45767;-74
2023/03/24 04:53:50;;;;;;;;;0.00;0.00;;;;;14.06;62.62;99699.16;5030857;28;47546;-73
2023/03/24 04:56:49;;;;;;;;;0.00;0.00;;;;;14.02;62.68;99705.72;5030780;28;47263;-73
2023/03/24 05:02:36;;;;;;;;;0.00;0.00;;;;;13.87;63.07;99708.03;5029185;28;45833;-73
2023/03/24 05:05:03;;;;;;;;;3.00;1.00;;;;;13.89;63.54;99721.06;5030597;28;46913;-73
2023/03/24 05:07:28;;;;;;;;;0.00;0.00;;;;;13.89;63.29;99721.06;5030920;28;45988;-73
2023/03/24 05:09:54;;;;;;;;;1.25;0.00;;;;;13.87;63.59;99723.03;5031113;28;45624;-72
2023/03/24 05:12:19;;;;;;;;;0.50;0.00;;;;;13.87;63.41;99715.94;5058345;28;45852;-73
2023/03/24 05:18:06;;;;;;;;;1.00;0.00;;;;;13.79;64.12;99725.59;5073088;28;45904;-74
2023/03/24 05:20:32;;;;;;;;;0.00;0.00;;;;;13.73;64.06;99723.56;5073259;27;45548;-73
2023/03/24 05:22:57;;;;;;;;;0.50;0.00;;;;;13.79;63.95;99736.94;5073487;28;45652;-72
2023/03/24 05:25:23;;;;;;;;;0.25;0.00;;;;;13.75;63.82;99727.72;5073013;27;45584;-72
2023/03/24 05:27:48;;;;;;;;;0.00;0.00;;;;;13.79;63.82;99738.75;5088688;27;47370;-75
2023/03/24 05:33:35;;;;;;;;;0.00;0.00;;;;;13.79;64.00;99741.38;5073082;28;45720;-73
2023/03/24 05:36:01;;;;;;;;;0.00;0.00;;;;;13.77;63.88;99738.06;5073998;27;47453;-73
2023/03/24 05:38:26;;;;;;;;;1.75;0.50;;;;;13.77;63.47;99749.44;5076314;27;46121;-72
2023/03/24 05:40:55;;;;;;;;;1.25;0.50;;;;;13.76;63.75;99755.69;5076422;28;45493;-72
2023/03/24 05:43:20;;;;;;;;;2.00;0.25;;;;;13.76;63.68;99750.44;5076510;27;45920;-72
2023/03/24 05:49:07;;;;;;;;;1.00;0.50;;;;;13.71;63.63;99757.13;5076172;28;45696;-71
2023/03/24 05:51:33;;;;;;;;;1.75;1.75;;;;;13.65;63.21;99749.81;5075858;28;45553;-73
2023/03/24 05:53:58;;;;;;;;;2.00;0.00;;;;;13.65;63.58;99760.34;5076278;28;45723;-71
2023/03/24 05:56:23;;;;;;;;;3.00;1.00;;;;;13.61;63.65;99759.78;5076173;27;46540;-75
2023/03/24 05:58:50;;;;;;;;;1.25;1.00;;;;;13.50;63.62;99752.13;5076437;28;45963;-76
2023/03/24 06:04:51;;;;;;;;;1.00;1.00;;;;;13.46;63.16;99777.06;5067069;28;45811;-74
2023/03/24 06:07:17;;;;;;;;;1.00;1.00;;;;;13.40;63.50;99785.56;5076048;27;46372;-75
2023/03/24 06:09:45;;;;;;;;;1.75;0.00;;;;;13.29;63.37;99776.06;5076217;27;45864;-75
2023/03/24 06:12:12;;;;;;;;;2.00;1.00;;;;;13.26;63.31;99797.41;5076134;28;45559;-77
2023/03/24 06:14:37;;;;;;;;;1.00;0.00;;;;;13.24;63.20;99804.59;5075602;27;45534;-75
2023/03/24 06:17:03;;;;;;;;;0.00;0.00;;;;;13.18;63.49;99799.94;5075809;28;45666;-75
2023/03/24 06:19:31;;;;;;;;;1.00;0.00;;;;;13.20;63.47;99805.06;5075794;27;46340;-75
2023/03/24 06:21:59;;;;;;;;;3.50;2.00;;;;;13.12;63.13;99804.97;5076009;27;45699;-72
2023/03/24 06:24:25;;;;;;;;;3.00;2.00;;;;;13.18;63.62;99818.34;5075838;28;45681;-76
2023/03/24 06:26:52;;;;;;;;;1.00;0.25;;;;;13.12;63.50;99821.53;5075551;27;45905;-74
2023/03/24 06:29:17;;;;;;;;;1.50;1.00;;;;;13.12;63.69;99823.38;5075712;28;46261;-77
2023/03/24 06:35:06;;;;;;;;;2.00;0.00;;;;;13.05;63.57;99844.13;5075729;28;45817;-76
2023/03/24 06:37:31;;;;;;;;;2.00;1.00;;;;;13.01;63.79;99840.94;5075423;27;46461;-75
2023/03/24 06:39:56;;;;;;;;;2.00;0.75;;;;;12.93;63.58;99832.94;5075535;27;47026;-74
2023/03/24 06:42:22;;;;;;;;;1.00;0.50;;;;;12.94;63.70;99847.75;5091218;27;46198;-74
2023/03/24 06:44:47;;;;;;;;;1.00;0.25;;;;;12.95;63.36;99859.94;5076024;27;45737;-74
2023/03/24 06:50:35;;;;;;;;;1.75;0.00;;;;;12.95;63.68;99856.47;5075329;28;45662;-72
2023/03/24 06:53:01;;;;;;;;;2.25;1.00;;;;;12.95;63.66;99851.22;5075734;27;45764;-75
2023/03/24 06:55:27;;;;;;;;;2.00;0.50;;;;;12.90;64.00;99848.19;5075193;27;45440;-77
2023/03/24 06:57:52;;;;;;;;;1.00;1.00;;;;;12.93;63.67;99864.50;5090693;27;47556;-73
2023/03/24 07:00:18;;;;;;;;;2.00;0.50;;;;;12.94;63.51;99865.31;5075081;27;46078;-72
2023/03/24 07:02:44;;;;;;;;;3.00;2.00;;;;;12.86;63.79;99860.75;5074967;28;45454;-73
2023/03/24 07:05:10;;;;;;;;;0.75;0.00;;;;;12.87;64.05;99862.44;5075027;28;45678;-73
2023/03/24 07:07:36;;;;;;;;;2.50;0.00;;;;;12.86;63.82;99878.34;5074929;27;47467;-72
2023/03/24 07:10:03;;;;;;;;;1.00;0.75;;;;;12.81;63.85;99863.00;5075010;27;46319;-73
2023/03/24 07:12:29;;;;;;;;;0.75;0.75;;;;;12.85;63.55;99876.66;5075357;27;45667;-72
2023/03/24 07:14:55;;;;;;;;;1.75;0.75;;;;;12.87;63.49;99869.47;5075191;28;45686;-73
2023/03/24 07:20:42;;;;;;;;;1.00;0.00;;;;;12.94;63.82;99892.44;5074791;28;46011;-75
2023/03/24 07:23:07;;;;;;;;;0.25;0.25;;;;;12.96;63.86;99887.03;5074800;28;45740;-71
2023/03/24 07:25:33;;;;;;;;;1.50;1.00;;;;;12.98;63.76;99898.25;5074657;28;45596;-72
2023/03/24 07:27:58;;;;;;;;;0.75;0.25;;;;;13.00;63.52;99902.41;5074580;27;47230;-72
2023/03/24 07:30:24;;;;;;;;;1.00;0.00;;;;;13.01;63.88;99903.19;5074751;27;46260;-73
2023/03/24 07:36:11;;;;;;;;;0.00;0.00;;;;;13.04;63.44;99897.69;5074478;28;45690;-74
2023/03/24 07:38:36;;;;;;;;;1.00;0.00;;;;;13.09;62.91;99908.59;5074436;27;46733;-73
2023/03/24 07:41:02;;;;;;;;;2.25;1.00;;;;;13.07;63.53;99899.19;5074592;28;46246;-72
2023/03/24 07:43:27;;;;;;;;;2.00;0.00;;;;;13.13;63.32;99903.91;5074585;28;45737;-73
2023/03/24 07:45:52;;;;;;;;;1.00;1.00;;;;;13.13;62.81;99891.59;5074320;27;45732;-73
2023/03/24 07:48:18;;;;;;;;;0.75;0.00;;;;;13.14;62.98;99908.19;5074137;28;46774;-73
2023/03/24 07:50:43;;;;;;;;;0.00;0.00;;;;;13.17;62.99;99897.41;5074149;28;47245;-72
2023/03/24 07:53:09;;;;;;;;;1.25;1.00;;;;;13.21;62.83;99901.41;5074203;27;45568;-72
2023/03/24 07:55:36;;;;;;;;;1.00;1.00;;;;;13.24;62.15;99898.47;5074349;28;45681;-73
2023/03/24 07:58:02;;;;;;;;;1.50;0.00;;;;;13.26;62.51;99896.53;5074156;27;47236;-73
2023/03/24 08:00:28;;;;;;;;;1.75;0.25;;;;;13.28;62.44;99900.66;5074130;28;46773;-73
2023/03/24 08:06:15;;;;;;;;;1.50;1.00;;;;;13.31;61.91;99917.97;5062864;28;45811;-73
2023/03/24 08:08:40;;;;;;;;;0.00;0.00;;;;;13.33;61.89;99916.84;5074013;28;46280;-74
2023/03/24 08:11:07;;;;;;;;;3.25;2.00;;;;;13.37;61.85;99920.03;5074104;28;46340;-75
2023/03/24 08:13:32;;;;;;;;;0.75;0.75;;;;;13.40;61.71;99946.06;5074187;27;45743;-74
2023/03/24 08:15:57;;;;;;;;;0.00;0.00;;;;;13.40;61.23;99928.47;5074241;27;45513;-74
2023/03/24 08:21:44;;;;;;;;;1.50;1.00;;;;;13.47;60.43;99915.56;5073639;28;45973;-75
2023/03/24 08:24:09;;;;;;;;;1.75;0.00;;;;;13.43;60.71;99901.06;5073863;27;45710;-74
2023/03/24 08:26:35;;;;;;;;;1.00;0.00;;;;;13.53;60.67;99943.94;5074147;27;45727;-75
2023/03/24 08:29:01;;;;;;;;;3.00;1.25;;;;;13.57;60.52;99921.63;5073652;27;46715;-72
2023/03/24 08:31:34;;;;;;;;;1.00;0.50;;;;;13.62;59.96;99929.91;5073962;27;45620;-74
2023/03/24 08:34:00;;;;;;;;;1.75;0.00;;;;;13.64;60.50;99920.06;5073806;27;45612;-74
2023/03/24 08:36:25;;;;;;;;;2.00;1.25;;;;;13.65;59.81;99926.19;5073813;27;45628;-73
2023/03/24 08:38:53;;;;;;;;;1.00;1.00;;;;;13.69;59.84;99943.31;5073286;27;47032;-73
2023/03/24 08:41:19;;;;;;;;;1.50;1.00;;;;;13.70;59.98;99947.63;5073651;27;47074;-73
2023/03/24 08:43:45;;;;;;;;;2.00;1.00;;;;;13.75;59.54;99959.38;5073952;27;45706;-72
2023/03/24 08:46:10;;;;;;;;;1.25;1.00;;;;;13.80;59.67;99957.13;5073577;27;45470;-73
2023/03/24 08:51:57;;;;;;;;;2.00;1.00;;;;;13.90;59.18;99970.25;5073538;28;45881;-74
2023/03/24 08:54:23;;;;;;;;;2.50;0.00;;;;;13.93;58.83;99971.78;5089351;27;45656;-71
2023/03/24 08:56:49;;;;;;;;;1.25;0.00;;;;;13.90;59.30;99965.00;5073836;27;45605;-72
2023/03/24 08:59:15;;;;;;;;;0.00;0.00;;;;;13.88;59.04;99970.38;5073634;28;46377;-72
2023/03/24 09:01:40;;;;;;;;;1.25;1.00;;;;;13.88;58.61;99966.94;5073387;27;45706;-73
2023/03/24 09:04:06;;;;;;;;;1.25;0.50;;;;;13.94;58.45;99976.88;5073589;27;45606;-71
2023/03/24 09:06:31;;;;;;;;;1.75;1.00;;;;;14.01;58.65;99987.66;5073033;28;45859;-71
2023/03/24 09:08:57;;;;;;;;;1.75;1.00;;;;;14.07;58.44;99977.38;5073168;28;47524;-71
2023/03/24 09:11:23;;;;;;;;;1.00;0.00;;;;;14.14;58.57;99977.63;5074794;28;47110;-73
2023/03/24 09:13:48;;;;;;;;;0.75;0.75;;;;;14.15;57.97;99956.38;5076744;27;45687;-73
2023/03/24 09:16:15;;;;;;;;;0.25;0.00;;;;;14.16;57.69;99981.75;5076565;27;45608;-71
2023/03/24 09:22:01;;;;;;;;;0.00;0.00;;;;;14.26;58.11;99968.53;5076417;28;45967;-73
2023/03/24 09:24:27;;;;;;;;;2.50;1.00;;;;;14.34;57.96;99983.59;5076482;27;45644;-74
2023/03/24 09:26:52;;;;;;;;;2.25;1.00;;;;;14.40;57.39;99989.16;5076777;28;45559;-71
2023/03/24 09:29:17;;;;;;;;;2.25;2.00;;;;;14.48;57.29;99989.22;5076401;28;47371;-73
2023/03/24 09:31:44;;;;;;;;;0.25;0.00;;;;;14.45;57.01;99984.25;5076572;27;45777;-73
2023/03/24 09:37:32;;;;;;;;;1.75;1.75;;;;;14.79;55.75;100016.03;5075227;28;45760;-70
2023/03/24 09:39:58;;;;;;;;;1.00;0.00;;;;;14.88;55.46;99996.69;5092049;27;47780;-73
2023/03/24 09:42:28;;;;;;;;;1.00;0.75;;;;;14.94;54.75;99996.09;5076084;28;46408;-73
2023/03/24 09:45:03;;;;;;;;;0.00;0.00;;;;;14.88;54.08;99991.44;5076005;27;46413;-72
2023/03/24 09:47:35;;;;;;;;;2.00;1.25;;;;;14.96;54.67;99999.41;5076327;27;45810;-73
2023/03/24 09:50:06;;;;;;;;;1.00;1.00;;;;;15.00;54.33;100008.69;5076560;28;46372;-73
2023/03/24 09:52:39;;;;;;;;;3.00;1.00;;;;;15.02;54.13;100006.69;5076074;27;46230;-72
2023/03/24 09:55:05;;;;;;;;;1.00;0.00;;;;;15.06;54.17;100000.13;5076384;27;45676;-72
2023/03/24 09:57:37;;;;;;;;;3.00;0.00;;;;;15.00;54.15;99992.84;5076493;27;45452;-72
2023/03/24 10:00:27;;;;;;;;;2.00;1.00;;;;;15.07;54.12;99990.41;5076267;27;45589;-71
2023/03/24 10:02:58;;;;;;;;;1.75;1.00;;;;;15.16;53.96;100009.78;5074572;28;46155;-73
2023/03/24 10:05:41;;;;;;;;;2.00;1.00;;;;;15.20;54.33;100009.31;5075454;27;45542;-72
2023/03/24 10:08:30;;;;;;;;;0.50;0.50;;;;;15.21;53.84;100011.00;5076091;28;45898;-72
2023/03/24 10:11:03;;;;;;;;;1.75;1.75;;;;;15.20;53.71;100011.13;5075998;27;46679;-75
2023/03/24 10:13:51;;;;;;;;;1.00;0.00;;;;;15.23;53.34;100009.00;5075714;28;47139;-72
2023/03/24 10:16:31;;;;;;;;;1.50;0.00;;;;;15.26;52.88;100011.34;5075822;28;45610;-73
2023/03/24 10:19:35;;;;;;;;;1.00;0.00;;;;;15.33;52.50;100025.56;5091696;27;45872;-73
2023/03/24 10:22:13;;;;;;;;;0.50;0.50;;;;;15.36;51.57;100014.72;5074954;27;46882;-73
2023/03/24 10:24:49;;;;;;;;;0.25;0.25;;;;;15.42;51.79;100029.13;5075472;27;46457;-73
2023/03/24 10:27:26;;;;;;;;;1.00;0.50;;;;;15.49;51.49;100012.50;5075980;27;45521;-73
2023/03/24 10:29:58;;;;;;;;;1.00;1.00;;;;;15.55;51.64;100016.34;5076179;28;45758;-72
2023/03/24 10:35:36;;;;;;;;;2.75;1.00;;;;;15.65;52.11;100032.94;5075395;28;46143;-72
2023/03/24 10:38:12;;;;;;;;;1.50;0.00;;;;;15.65;51.95;100017.09;5075673;27;45706;-72
2023/03/24 10:40:39;;;;;;;;;1.50;1.00;;;;;15.67;52.14;100003.72;5075849;27;45628;-73
2023/03/24 10:43:05;;;;;;;;;3.00;1.00;;;;;15.72;52.01;100018.13;5075248;27;47761;-73
2023/03/24 10:45:37;;;;;;;;;1.00;0.00;;;;;15.82;51.87;100015.34;5075232;27;46244;-73
2023/03/24 10:51:31;;;;;;;;;2.00;0.50;;;;;15.83;51.32;100017.84;5075077;28;45620;-74
2023/03/24 10:54:10;;;;;;;;;1.50;0.25;;;;;15.88;51.23;100020.84;5090927;27;46390;-73
2023/03/24 10:56:39;;;;;;;;;1.00;0.50;;;;;15.88;51.12;100009.44;5074993;28;46382;-73
2023/03/24 10:59:22;;;;;;;;;2.00;1.00;;;;;15.99;51.03;100021.56;5075484;27;45530;-72
2023/03/24 11:01:47;;;;;;;;;0.00;0.00;;;;;15.99;50.66;100016.28;5075495;27;45611;-72
2023/03/24 11:07:37;;;;;;;;;0.25;0.25;;;;;15.99;50.71;100032.13;5063563;28;46030;-73
2023/03/24 11:10:09;;;;;;;;;1.25;0.25;;;;;15.94;50.74;100028.16;5075312;27;45606;-74
2023/03/24 11:12:39;;;;;;;;;1.75;0.75;;;;;15.93;50.40;100025.66;5075331;28;45666;-71
2023/03/24 11:15:27;;;;;;;;;0.00;0.00;;;;;15.92;50.28;100039.88;5090404;27;47585;-73
2023/03/24 11:24:37;;;;;;;;;0.75;0.75;;;;;15.96;51.03;100030.63;5074518;28;45590;-73
2023/03/24 11:27:03;;;;;;;;;0.75;0.75;;;;;15.98;50.63;100026.00;5074615;27;46485;-72
2023/03/24 11:29:33;;;;;;;;;1.00;0.75;;;;;15.98;50.80;100020.72;5074425;28;46286;-72
2023/03/24 11:32:00;;;;;;;;;1.50;0.25;;;;;16.06;50.33;100030.50;5074760;27;45854;-72
2023/03/24 11:34:37;;;;;;;;;0.00;0.00;;;;;16.11;50.00;100017.66;5074350;27;45577;-71
2023/03/24 11:37:08;;;;;;;;;1.00;0.00;;;;;16.19;49.64;100015.06;5074131;27;45690;-73
2023/03/24 11:39:34;;;;;;;;;3.00;0.00;;;;;16.26;49.75;100016.88;5074243;27;46213;-71
2023/03/24 11:42:17;;;;;;;;;0.75;0.00;;;;;16.39;49.73;100021.72;5074133;28;45605;-72
2023/03/24 11:44:48;;;;;;;;;0.00;0.00;;;;;16.38;49.42;100020.06;5074154;27;45600;-73
2023/03/24 11:47:35;;;;;;;;;3.00;1.00;;;;;16.44;49.60;100022.06;5073584;27;47480;-73
2023/03/24 11:50:09;;;;;;;;;0.00;0.00;;;;;16.47;49.06;100029.66;5074147;27;46222;-73
2023/03/24 11:52:42;;;;;;;;;0.50;0.00;;;;;16.47;48.94;100020.91;5074387;28;45715;-72
2023/03/24 11:55:31;;;;;;;;;1.00;0.00;;;;;16.51;48.59;100028.38;5074196;27;45561;-72
2023/03/24 11:58:02;;;;;;;;;1.00;0.25;;;;;16.51;48.92;100019.63;5072565;28;46494;-72
2023/03/24 12:00:36;;;;;;;;;3.00;1.00;;;;;16.54;48.81;100024.56;5073875;28;46241;-72
2023/03/24 12:03:22;;;;;;;;;2.50;1.00;;;;;16.57;48.93;100030.34;5074063;27;45675;-72
2023/03/24 12:06:05;;;;;;;;;2.00;0.00;;;;;16.46;51.75;100029.84;5073507;27;45984;-73
2023/03/24 12:09:08;;;;;;;;;1.00;0.00;;;;;16.35;52.12;100037.09;5073489;27;46611;-72
2023/03/24 12:11:43;;;;;;;;;1.00;1.00;;;;;16.23;51.84;100030.44;5073842;28;46555;-72
2023/03/24 12:14:09;;;;;;;;;1.00;0.00;;;;;16.03;51.13;100051.97;5073903;27;45588;-71
2023/03/24 12:16:57;;;;;;;;;2.00;0.00;;;;;15.80;51.67;100065.72;5073990;27;45682;-71
2023/03/24 12:23:00;;;;;;;;;0.00;0.00;;;;;14.93;61.62;100041.91;5073244;28;45946;-74
2023/03/24 12:26:02;;;;;;;;;0.00;0.00;;;;;14.21;62.13;100061.19;5073560;27;45508;-73
2023/03/24 12:28:36;;;;;;;;;0.00;0.00;;;;;13.73;65.02;100056.09;5074090;27;45633;-73
2023/03/24 12:31:20;;;;;;;;;0.00;0.00;;;;;13.43;64.56;100061.56;5073608;28;45563;-72
2023/03/24 12:40:56;;;;;;;;;0.00;0.00;;;;;12.90;65.51;100016.44;5073708;28;45475;-72
2023/03/24 12:43:40;;;;;;;;;0.00;0.00;;;;;12.92;65.90;100012.69;5073474;28;46684;-71
2023/03/24 12:46:33;;;;;;;;;0.00;0.00;;;;;13.02;66.73;100005.63;5074704;28;45894;-73
2023/03/24 12:52:19;;;;;;;;;1.00;0.00;;;;;13.34;65.96;99996.63;5077129;28;45463;-72
2023/03/24 12:55:07;;;;;;;;;2.50;1.00;;;;;13.51;65.47;100006.41;5076802;28;46721;-72
2023/03/24 12:57:53;;;;;;;;;0.00;0.00;;;;;13.69;65.55;100003.88;5076969;27;45711;-72
2023/03/24 13:00:24;;;;;;;;;2.50;0.00;;;;;13.78;65.01;99988.03;5069298;27;45856;-73
2023/03/24 13:02:50;;;;;;;;;0.50;0.00;;;;;13.95;64.38;99993.50;5076677;27;45983;-72
2023/03/24 13:08:40;;;;;;;;;2.75;1.00;;;;;14.27;64.79;100009.72;5066050;28;45891;-71
2023/03/24 13:11:11;;;;;;;;;2.50;0.00;;;;;14.37;63.92;99997.34;5076841;27;45639;-73
2023/03/24 13:13:41;;;;;;;;;1.75;1.00;;;;;14.44;63.70;99987.88;5076623;27;45959;-73
2023/03/24 13:16:25;;;;;;;;;0.50;0.50;;;;;14.52;63.20;100005.59;5076436;27;47405;-72
2023/03/24 13:18:55;;;;;;;;;2.00;1.00;;;;;14.53;63.69;100001.94;5076461;27;47391;-73
2023/03/24 13:24:44;;;;;;;;;0.50;0.00;;;;;14.42;61.86;99957.34;5076427;28;45668;-73
2023/03/24 13:27:15;;;;;;;;;0.00;0.00;;;;;14.55;61.59;99989.47;5076653;27;46947;-73
2023/03/24 13:29:41;;;;;;;;;0.00;0.00;;;;;14.52;61.81;100010.84;5076379;27;47224;-73
2023/03/24 13:32:30;;;;;;;;;0.00;0.00;;;;;14.43;63.21;99993.28;5076459;27;45454;-72
2023/03/24 13:35:19;;;;;;;;;0.00;0.00;;;;;14.34;63.95;99975.69;5076826;27;45709;-73
2023/03/24 13:37:53;;;;;;;;;0.00;0.00;;;;;14.32;63.44;99967.09;5076438;28;45668;-71
2023/03/24 13:40:26;;;;;;;;;0.50;0.00;;;;;14.34;64.47;99965.16;5076500;27;45930;-71
2023/03/24 13:43:23;;;;;;;;;1.00;0.00;;;;;14.43;64.73;99959.00;5076385;28;45687;-73
2023/03/24 13:45:57;;;;;;;;;2.00;0.75;;;;;14.54;64.32;99954.34;5074454;27;46078;-73
2023/03/24 13:48:30;;;;;;;;;0.00;0.00;;;;;14.64;64.07;99956.91;5076376;27;45501;-72